Simms, MT (59477)

1:32 AM MDT on September 16, 2014 (GMT -0600)
Infinity Lofts | Change Station
CLOSE
Current Station
Personal Weather Station
Location: Sun River, MT
Elevation: 3488 ft
Nearby Weather Stations

Elev 3488 ft 47.55 °N, 111.72 °W | Updated 3 minutes ago

Clear
Clear
45.3 °F
Feels Like 43 °F
N
4.2
Wind Variable Wind from WSW

Today
High -- | Low -- °F
--% Chance of Precip.
Yesterday
High -- | Low -- °F
Precip. -- in
7:06 AM 7:37 PM
Waning Gibbous, 48% visible
Pressure 29.99 in
Visibility 10.0 miles
Clouds Clear
Windchill 43 °F
Dew Point 40 °F
Humidity 80%
Rainfall 0.00 in
Snow Depth Not available.
UV 0 out of 12
Pollen 6.80 out of 12
Air Quality Not available.
Flu Activity Not available.
METAR KGTF 160653Z 24005KT 10SM CLR 08/03 A3002 RMK AO2 SLP155 T00780028 402560039 $

More Conditions Fewer Conditions

Pressure 29.99 in
Visibility 10.0 miles
Clouds Clear
Windchill 43 °F
Dew Point 40 °F
Humidity 80%
Rainfall 0.00 in
Snow Depth Not available.
UV 0 out of 12
Pollen 6.80 out of 12
Air Quality Not available.
Flu Activity Not available.
METAR KGTF 160653Z 24005KT 10SM CLR 08/03 A3002 RMK AO2 SLP155 T00780028 402560039 $

More Conditions Fewer Conditions

10-Day Weather Forecast

Almanac

Astronomy

Sep. 16, 2014 Rise Set
Actual Time 7:06 AM MDT 7:37 PM MDT
Civil Twilight 6:35 AM MDT 8:08 PM MDT
Nautical Twilight 5:58 AM MDT 8:44 PM MDT
Astronomical Twilight 5:20 AM MDT 9:22 PM MDT
Moon 12:01 AM MDT 3:22 PM MDT
Length of Visible Light 13h 32m
Length of Day
12h 31m
Tomorrow will be 3m 23s shorter.
Waning Gibbous, 48% of the Moon is Illuminated
Today
Waning Gibbous
Sep 24
New
Oct 1
First Quarter
Oct 8
Full
Oct 15
Last Quarter

Today's Extremes

State Highs State Lows

Community

WunderPhotos

Upload Photos

1,753,713 photos uploaded!

Nearby

Snow Depth

Station Depth Elevation
Cole Creek 1 in 7850 ft
Nez Perce Camp 0 in 5650 ft
Rocky Boy 0 in 4700 ft
Lubrecht Flume 0 in 4680 ft
Combination 0 in 5600 ft

Earthquake Activity

City Distance Mag. Time & Date
No recent earthquake activity has been reported nearby.
Minimum magnitude displayed is 2.5.

Coastal Water Temperatures

Place Temperature
No Stations Reporting

Nearby Weather Stations